sensor_id;sensor_type;location;lat;lon;timestamp;P1;durP1;ratioP1;P2;durP2;ratioP2
14714;SDS011;7448;52.698;5.186;2022-12-08T00:01:11;0.80;;;0.52;;
14714;SDS011;7448;52.698;5.186;2022-12-08T00:03:38;1.85;;;0.70;;
14714;SDS011;7448;52.698;5.186;2022-12-08T00:06:05;8.60;;;0.93;;
14714;SDS011;7448;52.698;5.186;2022-12-08T00:08:50;6.32;;;1.00;;
14714;SDS011;7448;52.698;5.186;2022-12-08T00:11:37;4.50;;;0.77;;
14714;SDS011;7448;52.698;5.186;2022-12-08T00:14:04;7.40;;;1.67;;
14714;SDS011;7448;52.698;5.186;2022-12-08T00:16:30;6.30;;;1.08;;
14714;SDS011;7448;52.698;5.186;2022-12-08T00:18:56;2.42;;;1.17;;
14714;SDS011;7448;52.698;5.186;2022-12-08T00:21:23;11.13;;;2.80;;
14714;SDS011;7448;52.698;5.186;2022-12-08T00:23:49;5.05;;;1.27;;
14714;SDS011;7448;52.698;5.186;2022-12-08T00:26:16;5.80;;;1.20;;
14714;SDS011;7448;52.698;5.186;2022-12-08T00:28:42;3.28;;;1.20;;
14714;SDS011;7448;52.698;5.186;2022-12-08T00:31:11;3.88;;;1.02;;
14714;SDS011;7448;52.698;5.186;2022-12-08T00:33:38;3.00;;;0.93;;
14714;SDS011;7448;52.698;5.186;2022-12-08T00:36:08;2.60;;;1.17;;
14714;SDS011;7448;52.698;5.186;2022-12-08T00:38:35;10.82;;;1.02;;
14714;SDS011;7448;52.698;5.186;2022-12-08T00:41:03;2.88;;;0.90;;
14714;SDS011;7448;52.698;5.186;2022-12-08T00:43:32;2.05;;;0.90;;
14714;SDS011;7448;52.698;5.186;2022-12-08T00:45:58;4.70;;;1.08;;
14714;SDS011;7448;52.698;5.186;2022-12-08T00:48:25;3.67;;;1.00;;
14714;SDS011;7448;52.698;5.186;2022-12-08T00:50:51;5.20;;;1.17;;
14714;SDS011;7448;52.698;5.186;2022-12-08T00:53:18;7.35;;;1.42;;
14714;SDS011;7448;52.698;5.186;2022-12-08T00:55:45;4.95;;;1.50;;
14714;SDS011;7448;52.698;5.186;2022-12-08T00:58:12;2.28;;;1.10;;
14714;SDS011;7448;52.698;5.186;2022-12-08T01:00:40;3.28;;;1.10;;
14714;SDS011;7448;52.698;5.186;2022-12-08T01:03:10;2.53;;;1.08;;
14714;SDS011;7448;52.698;5.186;2022-12-08T01:05:36;3.10;;;1.17;;
14714;SDS011;7448;52.698;5.186;2022-12-08T01:08:06;3.95;;;1.55;;
14714;SDS011;7448;52.698;5.186;2022-12-08T01:10:36;3.53;;;1.10;;
14714;SDS011;7448;52.698;5.186;2022-12-08T01:13:04;3.92;;;1.23;;
14714;SDS011;7448;52.698;5.186;2022-12-08T01:15:30;3.28;;;1.27;;
14714;SDS011;7448;52.698;5.186;2022-12-08T01:17:57;1.90;;;1.10;;
14714;SDS011;7448;52.698;5.186;2022-12-08T01:20:23;2.83;;;0.90;;
14714;SDS011;7448;52.698;5.186;2022-12-08T01:22:50;5.30;;;1.27;;
14714;SDS011;7448;52.698;5.186;2022-12-08T01:25:16;3.78;;;1.10;;
14714;SDS011;7448;52.698;5.186;2022-12-08T01:27:43;3.90;;;1.17;;
14714;SDS011;7448;52.698;5.186;2022-12-08T01:30:10;3.80;;;1.33;;
14714;SDS011;7448;52.698;5.186;2022-12-08T01:32:37;2.95;;;1.30;;
14714;SDS011;7448;52.698;5.186;2022-12-08T01:35:04;2.00;;;0.98;;
14714;SDS011;7448;52.698;5.186;2022-12-08T01:37:30;5.15;;;1.10;;
14714;SDS011;7448;52.698;5.186;2022-12-08T01:39:57;2.70;;;0.98;;
14714;SDS011;7448;52.698;5.186;2022-12-08T01:42:23;9.38;;;1.75;;
14714;SDS011;7448;52.698;5.186;2022-12-08T01:44:55;2.65;;;1.08;;
14714;SDS011;7448;52.698;5.186;2022-12-08T01:47:23;4.10;;;1.23;;
14714;SDS011;7448;52.698;5.186;2022-12-08T01:49:51;6.85;;;1.38;;
14714;SDS011;7448;52.698;5.186;2022-12-08T01:52:39;5.57;;;1.20;;
14714;SDS011;7448;52.698;5.186;2022-12-08T01:55:14;3.92;;;1.15;;
14714;SDS011;7448;52.698;5.186;2022-12-08T01:57:42;4.28;;;0.70;;
14714;SDS011;7448;52.698;5.186;2022-12-08T02:00:12;1.52;;;0.70;;
14714;SDS011;7448;52.698;5.186;2022-12-08T02:02:50;2.30;;;0.52;;
14714;SDS011;7448;52.698;5.186;2022-12-08T02:05:19;6.40;;;0.60;;
14714;SDS011;7448;52.698;5.186;2022-12-08T02:07:46;3.20;;;0.80;;
14714;SDS011;7448;52.698;5.186;2022-12-08T02:10:16;3.58;;;0.50;;
14714;SDS011;7448;52.698;5.186;2022-12-08T02:12:43;6.72;;;1.00;;
14714;SDS011;7448;52.698;5.186;2022-12-08T02:15:09;3.03;;;0.77;;
14714;SDS011;7448;52.698;5.186;2022-12-08T02:17:43;1.45;;;0.30;;
14714;SDS011;7448;52.698;5.186;2022-12-08T02:25:40;6.25;;;0.85;;
14714;SDS011;7448;52.698;5.186;2022-12-08T02:31:03;2.30;;;0.57;;
14714;SDS011;7448;52.698;5.186;2022-12-08T02:36:09;2.33;;;0.50;;
14714;SDS011;7448;52.698;5.186;2022-12-08T02:42:11;2.50;;;0.45;;
14714;SDS011;7448;52.698;5.186;2022-12-08T02:46:57;3.38;;;1.30;;
14714;SDS011;7448;52.698;5.186;2022-12-08T02:49:32;3.58;;;0.60;;
14714;SDS011;7448;52.698;5.186;2022-12-08T02:52:05;2.05;;;0.70;;
14714;SDS011;7448;52.698;5.186;2022-12-08T02:54:32;6.10;;;0.60;;
14714;SDS011;7448;52.698;5.186;2022-12-08T02:59:38;2.40;;;0.60;;
14714;SDS011;7448;52.698;5.186;2022-12-08T03:04:40;4.05;;;0.88;;
14714;SDS011;7448;52.698;5.186;2022-12-08T03:07:18;2.10;;;0.52;;
14714;SDS011;7448;52.698;5.186;2022-12-08T03:09:49;1.90;;;0.40;;
14714;SDS011;7448;52.698;5.186;2022-12-08T03:12:17;4.43;;;0.57;;
14714;SDS011;7448;52.698;5.186;2022-12-08T03:14:47;3.10;;;0.77;;
14714;SDS011;7448;52.698;5.186;2022-12-08T03:17:15;2.63;;;0.47;;
14714;SDS011;7448;52.698;5.186;2022-12-08T03:19:43;2.08;;;0.73;;
14714;SDS011;7448;52.698;5.186;2022-12-08T03:22:10;3.33;;;0.60;;
14714;SDS011;7448;52.698;5.186;2022-12-08T03:24:39;2.63;;;0.60;;
14714;SDS011;7448;52.698;5.186;2022-12-08T03:27:07;3.53;;;0.60;;
14714;SDS011;7448;52.698;5.186;2022-12-08T03:29:35;5.88;;;0.65;;
14714;SDS011;7448;52.698;5.186;2022-12-08T03:34:43;1.35;;;0.50;;
14714;SDS011;7448;52.698;5.186;2022-12-08T03:37:12;5.82;;;0.93;;
14714;SDS011;7448;52.698;5.186;2022-12-08T03:39:38;2.08;;;0.50;;
14714;SDS011;7448;52.698;5.186;2022-12-08T03:42:05;9.77;;;1.02;;
14714;SDS011;7448;52.698;5.186;2022-12-08T03:44:32;4.93;;;1.13;;
14714;SDS011;7448;52.698;5.186;2022-12-08T03:46:58;5.20;;;0.73;;
14714;SDS011;7448;52.698;5.186;2022-12-08T03:49:25;4.60;;;0.75;;
14714;SDS011;7448;52.698;5.186;2022-12-08T03:51:51;5.78;;;0.65;;
14714;SDS011;7448;52.698;5.186;2022-12-08T03:54:18;1.92;;;0.70;;
14714;SDS011;7448;52.698;5.186;2022-12-08T03:56:44;3.78;;;0.65;;
14714;SDS011;7448;52.698;5.186;2022-12-08T03:59:11;5.50;;;0.73;;
14714;SDS011;7448;52.698;5.186;2022-12-08T04:01:37;5.05;;;0.70;;
14714;SDS011;7448;52.698;5.186;2022-12-08T04:04:04;3.28;;;0.70;;
14714;SDS011;7448;52.698;5.186;2022-12-08T04:06:30;4.90;;;0.80;;
14714;SDS011;7448;52.698;5.186;2022-12-08T04:08:56;4.35;;;0.70;;
14714;SDS011;7448;52.698;5.186;2022-12-08T04:11:23;1.45;;;0.40;;
14714;SDS011;7448;52.698;5.186;2022-12-08T04:13:49;5.20;;;0.70;;
14714;SDS011;7448;52.698;5.186;2022-12-08T04:16:17;1.13;;;0.40;;
14714;SDS011;7448;52.698;5.186;2022-12-08T04:18:43;1.83;;;0.50;;
14714;SDS011;7448;52.698;5.186;2022-12-08T04:21:10;0.30;;;0.30;;
14714;SDS011;7448;52.698;5.186;2022-12-08T04:23:37;1.75;;;0.40;;
14714;SDS011;7448;52.698;5.186;2022-12-08T04:26:03;0.55;;;0.40;;
14714;SDS011;7448;52.698;5.186;2022-12-08T04:28:30;3.83;;;0.70;;
14714;SDS011;7448;52.698;5.186;2022-12-08T04:30:56;1.00;;;0.50;;
14714;SDS011;7448;52.698;5.186;2022-12-08T04:33:23;1.88;;;0.65;;
14714;SDS011;7448;52.698;5.186;2022-12-08T04:35:49;4.65;;;0.60;;
14714;SDS011;7448;52.698;5.186;2022-12-08T04:38:16;4.18;;;0.80;;
14714;SDS011;7448;52.698;5.186;2022-12-08T04:40:42;2.88;;;0.50;;
14714;SDS011;7448;52.698;5.186;2022-12-08T04:43:09;6.55;;;0.90;;
14714;SDS011;7448;52.698;5.186;2022-12-08T04:45:37;1.75;;;0.55;;
14714;SDS011;7448;52.698;5.186;2022-12-08T04:48:04;5.68;;;0.82;;
14714;SDS011;7448;52.698;5.186;2022-12-08T04:50:31;1.23;;;0.70;;
14714;SDS011;7448;52.698;5.186;2022-12-08T04:52:57;5.10;;;0.85;;
14714;SDS011;7448;52.698;5.186;2022-12-08T04:55:24;4.55;;;1.05;;
14714;SDS011;7448;52.698;5.186;2022-12-08T04:57:50;5.30;;;0.82;;
14714;SDS011;7448;52.698;5.186;2022-12-08T05:00:18;4.82;;;0.70;;
14714;SDS011;7448;52.698;5.186;2022-12-08T05:02:45;2.25;;;0.73;;
14714;SDS011;7448;52.698;5.186;2022-12-08T05:05:11;4.68;;;0.68;;
14714;SDS011;7448;52.698;5.186;2022-12-08T05:07:38;5.80;;;0.88;;
14714;SDS011;7448;52.698;5.186;2022-12-08T05:10:04;7.38;;;0.90;;
14714;SDS011;7448;52.698;5.186;2022-12-08T05:12:31;5.72;;;1.10;;
14714;SDS011;7448;52.698;5.186;2022-12-08T05:14:57;3.50;;;0.95;;
14714;SDS011;7448;52.698;5.186;2022-12-08T05:17:24;5.95;;;1.70;;
14714;SDS011;7448;52.698;5.186;2022-12-08T05:19:50;8.13;;;1.02;;
14714;SDS011;7448;52.698;5.186;2022-12-08T05:22:17;3.75;;;1.00;;
14714;SDS011;7448;52.698;5.186;2022-12-08T05:24:43;4.75;;;0.77;;
14714;SDS011;7448;52.698;5.186;2022-12-08T05:27:10;3.97;;;0.85;;
14714;SDS011;7448;52.698;5.186;2022-12-08T05:29:36;3.08;;;0.77;;
14714;SDS011;7448;52.698;5.186;2022-12-08T05:32:03;4.75;;;1.00;;
14714;SDS011;7448;52.698;5.186;2022-12-08T05:34:29;6.72;;;1.13;;
14714;SDS011;7448;52.698;5.186;2022-12-08T05:36:56;4.28;;;0.98;;
14714;SDS011;7448;52.698;5.186;2022-12-08T05:39:22;5.28;;;0.95;;
14714;SDS011;7448;52.698;5.186;2022-12-08T05:41:48;2.60;;;1.20;;
14714;SDS011;7448;52.698;5.186;2022-12-08T05:44:15;2.40;;;0.75;;
14714;SDS011;7448;52.698;5.186;2022-12-08T05:46:41;1.23;;;0.55;;
14714;SDS011;7448;52.698;5.186;2022-12-08T05:49:08;4.80;;;0.80;;
14714;SDS011;7448;52.698;5.186;2022-12-08T05:51:34;1.02;;;0.60;;
14714;SDS011;7448;52.698;5.186;2022-12-08T05:54:01;2.88;;;0.85;;
14714;SDS011;7448;52.698;5.186;2022-12-08T05:56:27;9.50;;;0.98;;
14714;SDS011;7448;52.698;5.186;2022-12-08T05:58:54;3.45;;;0.82;;
14714;SDS011;7448;52.698;5.186;2022-12-08T06:01:21;5.60;;;0.88;;
14714;SDS011;7448;52.698;5.186;2022-12-08T06:03:48;5.55;;;1.35;;
14714;SDS011;7448;52.698;5.186;2022-12-08T06:06:15;4.38;;;1.60;;
14714;SDS011;7448;52.698;5.186;2022-12-08T06:08:41;2.95;;;1.67;;
14714;SDS011;7448;52.698;5.186;2022-12-08T06:11:08;6.25;;;2.00;;
14714;SDS011;7448;52.698;5.186;2022-12-08T06:13:34;3.35;;;1.40;;
14714;SDS011;7448;52.698;5.186;2022-12-08T06:16:05;9.27;;;2.08;;
14714;SDS011;7448;52.698;5.186;2022-12-08T06:18:31;8.23;;;1.30;;
14714;SDS011;7448;52.698;5.186;2022-12-08T06:21:16;4.45;;;1.20;;
14714;SDS011;7448;52.698;5.186;2022-12-08T06:23:46;2.70;;;1.10;;
14714;SDS011;7448;52.698;5.186;2022-12-08T06:26:13;7.97;;;1.90;;
14714;SDS011;7448;52.698;5.186;2022-12-08T06:28:40;7.95;;;1.30;;
14714;SDS011;7448;52.698;5.186;2022-12-08T06:31:08;3.13;;;0.90;;
14714;SDS011;7448;52.698;5.186;2022-12-08T06:33:35;3.40;;;0.90;;
14714;SDS011;7448;52.698;5.186;2022-12-08T06:36:02;5.38;;;0.85;;
14714;SDS011;7448;52.698;5.186;2022-12-08T06:38:29;3.17;;;0.90;;
14714;SDS011;7448;52.698;5.186;2022-12-08T06:40:56;3.90;;;0.90;;
14714;SDS011;7448;52.698;5.186;2022-12-08T06:43:23;1.80;;;0.77;;
14714;SDS011;7448;52.698;5.186;2022-12-08T06:45:50;3.25;;;1.00;;
14714;SDS011;7448;52.698;5.186;2022-12-08T06:48:17;4.57;;;0.70;;
14714;SDS011;7448;52.698;5.186;2022-12-08T06:50:44;3.60;;;1.05;;
14714;SDS011;7448;52.698;5.186;2022-12-08T06:53:11;1.70;;;0.95;;
14714;SDS011;7448;52.698;5.186;2022-12-08T06:55:44;4.90;;;0.90;;
14714;SDS011;7448;52.698;5.186;2022-12-08T06:58:11;6.85;;;1.33;;
14714;SDS011;7448;52.698;5.186;2022-12-08T07:00:38;2.28;;;1.13;;
14714;SDS011;7448;52.698;5.186;2022-12-08T07:03:05;1.63;;;1.23;;
14714;SDS011;7448;52.698;5.186;2022-12-08T07:05:33;1.63;;;1.05;;
14714;SDS011;7448;52.698;5.186;2022-12-08T07:07:59;2.92;;;1.75;;
14714;SDS011;7448;52.698;5.186;2022-12-08T07:10:26;3.03;;;1.70;;
14714;SDS011;7448;52.698;5.186;2022-12-08T07:12:52;2.67;;;1.40;;
14714;SDS011;7448;52.698;5.186;2022-12-08T07:15:19;3.78;;;1.60;;
14714;SDS011;7448;52.698;5.186;2022-12-08T07:17:46;4.15;;;1.70;;
14714;SDS011;7448;52.698;5.186;2022-12-08T07:20:12;11.77;;;1.70;;
14714;SDS011;7448;52.698;5.186;2022-12-08T07:22:39;8.65;;;1.65;;
14714;SDS011;7448;52.698;5.186;2022-12-08T07:25:06;4.18;;;1.80;;
14714;SDS011;7448;52.698;5.186;2022-12-08T07:27:32;3.42;;;1.77;;
14714;SDS011;7448;52.698;5.186;2022-12-08T07:29:59;7.10;;;1.85;;
14714;SDS011;7448;52.698;5.186;2022-12-08T07:32:25;5.53;;;2.03;;
14714;SDS011;7448;52.698;5.186;2022-12-08T07:34:52;8.02;;;2.45;;
14714;SDS011;7448;52.698;5.186;2022-12-08T07:37:18;5.05;;;1.58;;
14714;SDS011;7448;52.698;5.186;2022-12-08T07:39:45;2.88;;;1.20;;
14714;SDS011;7448;52.698;5.186;2022-12-08T07:42:11;5.35;;;1.70;;
14714;SDS011;7448;52.698;5.186;2022-12-08T07:44:38;5.43;;;1.70;;
14714;SDS011;7448;52.698;5.186;2022-12-08T07:47:04;4.28;;;1.40;;
14714;SDS011;7448;52.698;5.186;2022-12-08T07:49:30;4.05;;;1.50;;
14714;SDS011;7448;52.698;5.186;2022-12-08T07:51:57;6.63;;;1.80;;
14714;SDS011;7448;52.698;5.186;2022-12-08T07:54:24;7.07;;;1.77;;
14714;SDS011;7448;52.698;5.186;2022-12-08T07:56:50;9.57;;;2.03;;
14714;SDS011;7448;52.698;5.186;2022-12-08T07:59:16;9.77;;;1.95;;
14714;SDS011;7448;52.698;5.186;2022-12-08T08:01:44;5.05;;;1.90;;
14714;SDS011;7448;52.698;5.186;2022-12-08T08:04:12;7.38;;;1.75;;
14714;SDS011;7448;52.698;5.186;2022-12-08T08:06:39;3.47;;;1.20;;
14714;SDS011;7448;52.698;5.186;2022-12-08T08:09:05;6.30;;;2.13;;
14714;SDS011;7448;52.698;5.186;2022-12-08T08:11:33;5.55;;;1.63;;
14714;SDS011;7448;52.698;5.186;2022-12-08T08:13:59;9.55;;;2.22;;
14714;SDS011;7448;52.698;5.186;2022-12-08T08:16:26;3.78;;;1.50;;
14714;SDS011;7448;52.698;5.186;2022-12-08T08:18:52;8.27;;;1.73;;
14714;SDS011;7448;52.698;5.186;2022-12-08T08:21:19;3.65;;;1.40;;
14714;SDS011;7448;52.698;5.186;2022-12-08T08:23:46;5.28;;;1.77;;
14714;SDS011;7448;52.698;5.186;2022-12-08T08:26:12;3.05;;;1.45;;
14714;SDS011;7448;52.698;5.186;2022-12-08T08:28:39;2.65;;;1.50;;
14714;SDS011;7448;52.698;5.186;2022-12-08T08:31:05;7.32;;;1.75;;
14714;SDS011;7448;52.698;5.186;2022-12-08T08:33:32;7.63;;;1.55;;
14714;SDS011;7448;52.698;5.186;2022-12-08T08:35:59;4.72;;;1.58;;
14714;SDS011;7448;52.698;5.186;2022-12-08T08:38:25;2.80;;;1.30;;
14714;SDS011;7448;52.698;5.186;2022-12-08T08:40:52;4.47;;;1.40;;
14714;SDS011;7448;52.698;5.186;2022-12-08T08:43:18;8.15;;;1.58;;
14714;SDS011;7448;52.698;5.186;2022-12-08T08:45:57;6.47;;;1.60;;
14714;SDS011;7448;52.698;5.186;2022-12-08T08:48:27;8.02;;;2.72;;
14714;SDS011;7448;52.698;5.186;2022-12-08T08:50:54;9.88;;;2.92;;
14714;SDS011;7448;52.698;5.186;2022-12-08T08:53:22;15.80;;;3.08;;
14714;SDS011;7448;52.698;5.186;2022-12-08T08:55:49;10.30;;;2.22;;
14714;SDS011;7448;52.698;5.186;2022-12-08T08:58:15;7.03;;;2.10;;
14714;SDS011;7448;52.698;5.186;2022-12-08T09:00:42;12.32;;;1.83;;
14714;SDS011;7448;52.698;5.186;2022-12-08T09:03:09;8.98;;;1.90;;
14714;SDS011;7448;52.698;5.186;2022-12-08T09:05:39;3.95;;;1.70;;
14714;SDS011;7448;52.698;5.186;2022-12-08T09:08:06;7.25;;;1.63;;
14714;SDS011;7448;52.698;5.186;2022-12-08T09:10:33;7.88;;;1.90;;
14714;SDS011;7448;52.698;5.186;2022-12-08T09:12:59;10.32;;;1.50;;
14714;SDS011;7448;52.698;5.186;2022-12-08T09:15:26;11.57;;;1.63;;
14714;SDS011;7448;52.698;5.186;2022-12-08T09:17:52;8.60;;;1.85;;
14714;SDS011;7448;52.698;5.186;2022-12-08T09:20:19;12.77;;;1.63;;
14714;SDS011;7448;52.698;5.186;2022-12-08T09:22:45;5.97;;;1.58;;
14714;SDS011;7448;52.698;5.186;2022-12-08T09:25:12;9.05;;;1.85;;
14714;SDS011;7448;52.698;5.186;2022-12-08T09:27:38;8.10;;;1.60;;
14714;SDS011;7448;52.698;5.186;2022-12-08T09:30:05;8.65;;;1.85;;
14714;SDS011;7448;52.698;5.186;2022-12-08T09:32:31;6.82;;;1.75;;
14714;SDS011;7448;52.698;5.186;2022-12-08T09:34:58;4.38;;;1.15;;
14714;SDS011;7448;52.698;5.186;2022-12-08T09:37:25;4.38;;;1.42;;
14714;SDS011;7448;52.698;5.186;2022-12-08T09:39:52;19.35;;;1.65;;
14714;SDS011;7448;52.698;5.186;2022-12-08T09:42:24;7.65;;;1.42;;
14714;SDS011;7448;52.698;5.186;2022-12-08T09:45:05;3.30;;;1.05;;
14714;SDS011;7448;52.698;5.186;2022-12-08T09:50:05;3.35;;;1.08;;
14714;SDS011;7448;52.698;5.186;2022-12-08T09:52:34;3.45;;;1.30;;
14714;SDS011;7448;52.698;5.186;2022-12-08T09:55:05;5.43;;;1.27;;
14714;SDS011;7448;52.698;5.186;2022-12-08T09:57:34;9.07;;;1.55;;
14714;SDS011;7448;52.698;5.186;2022-12-08T10:00:03;5.40;;;1.42;;
14714;SDS011;7448;52.698;5.186;2022-12-08T10:02:30;6.03;;;0.98;;
14714;SDS011;7448;52.698;5.186;2022-12-08T10:04:57;9.80;;;1.58;;
14714;SDS011;7448;52.698;5.186;2022-12-08T10:07:37;5.88;;;1.42;;
14714;SDS011;7448;52.698;5.186;2022-12-08T10:12:47;5.55;;;1.77;;
14714;SDS011;7448;52.698;5.186;2022-12-08T10:17:44;5.13;;;1.00;;
14714;SDS011;7448;52.698;5.186;2022-12-08T10:22:40;7.10;;;1.50;;
14714;SDS011;7448;52.698;5.186;2022-12-08T10:27:36;3.45;;;1.30;;
14714;SDS011;7448;52.698;5.186;2022-12-08T10:30:12;4.47;;;1.08;;
14714;SDS011;7448;52.698;5.186;2022-12-08T10:32:39;5.28;;;1.15;;
14714;SDS011;7448;52.698;5.186;2022-12-08T10:35:07;5.50;;;1.70;;
14714;SDS011;7448;52.698;5.186;2022-12-08T10:37:34;6.85;;;1.40;;
14714;SDS011;7448;52.698;5.186;2022-12-08T10:40:07;7.45;;;1.48;;
14714;SDS011;7448;52.698;5.186;2022-12-08T10:42:36;2.28;;;0.90;;
14714;SDS011;7448;52.698;5.186;2022-12-08T10:47:39;4.75;;;0.88;;
14714;SDS011;7448;52.698;5.186;2022-12-08T10:52:46;3.80;;;1.05;;
14714;SDS011;7448;52.698;5.186;2022-12-08T10:55:19;5.05;;;1.20;;
14714;SDS011;7448;52.698;5.186;2022-12-08T10:57:46;7.15;;;1.00;;
14714;SDS011;7448;52.698;5.186;2022-12-08T11:00:17;6.05;;;1.38;;
14714;SDS011;7448;52.698;5.186;2022-12-08T11:02:52;5.60;;;0.95;;
14714;SDS011;7448;52.698;5.186;2022-12-08T11:05:19;4.47;;;0.85;;
14714;SDS011;7448;52.698;5.186;2022-12-08T11:07:48;5.53;;;1.00;;
14714;SDS011;7448;52.698;5.186;2022-12-08T11:10:19;6.68;;;1.23;;
14714;SDS011;7448;52.698;5.186;2022-12-08T11:12:47;0.98;;;0.50;;
14714;SDS011;7448;52.698;5.186;2022-12-08T11:15:15;3.70;;;0.70;;
14714;SDS011;7448;52.698;5.186;2022-12-08T11:17:42;7.22;;;0.90;;
14714;SDS011;7448;52.698;5.186;2022-12-08T11:22:37;3.10;;;0.85;;
14714;SDS011;7448;52.698;5.186;2022-12-08T11:27:37;5.43;;;1.20;;
14714;SDS011;7448;52.698;5.186;2022-12-08T11:30:11;4.45;;;1.50;;
14714;SDS011;7448;52.698;5.186;2022-12-08T11:32:39;6.40;;;1.67;;
14714;SDS011;7448;52.698;5.186;2022-12-08T11:35:08;4.40;;;1.90;;
14714;SDS011;7448;52.698;5.186;2022-12-08T11:37:36;5.47;;;1.73;;
14714;SDS011;7448;52.698;5.186;2022-12-08T11:40:12;4.15;;;2.17;;
14714;SDS011;7448;52.698;5.186;2022-12-08T11:45:28;5.72;;;2.15;;
14714;SDS011;7448;52.698;5.186;2022-12-08T11:48:00;8.82;;;2.60;;
14714;SDS011;7448;52.698;5.186;2022-12-08T11:50:30;5.57;;;2.30;;
14714;SDS011;7448;52.698;5.186;2022-12-08T11:52:57;7.53;;;2.50;;
14714;SDS011;7448;52.698;5.186;2022-12-08T11:57:51;5.95;;;3.35;;
14714;SDS011;7448;52.698;5.186;2022-12-08T12:00:19;8.25;;;3.38;;
14714;SDS011;7448;52.698;5.186;2022-12-08T12:02:51;11.20;;;3.53;;
14714;SDS011;7448;52.698;5.186;2022-12-08T12:08:23;7.93;;;3.00;;
14714;SDS011;7448;52.698;5.186;2022-12-08T12:11:12;11.48;;;2.92;;
14714;SDS011;7448;52.698;5.186;2022-12-08T12:14:17;5.35;;;2.03;;
14714;SDS011;7448;52.698;5.186;2022-12-08T12:16:53;7.13;;;1.60;;
14714;SDS011;7448;52.698;5.186;2022-12-08T12:19:24;4.55;;;1.40;;
14714;SDS011;7448;52.698;5.186;2022-12-08T12:21:52;3.03;;;1.42;;
14714;SDS011;7448;52.698;5.186;2022-12-08T12:24:21;4.22;;;1.50;;
14714;SDS011;7448;52.698;5.186;2022-12-08T12:29:36;5.68;;;1.45;;
14714;SDS011;7448;52.698;5.186;2022-12-08T12:32:04;3.70;;;1.63;;
14714;SDS011;7448;52.698;5.186;2022-12-08T12:34:33;4.00;;;1.65;;
14714;SDS011;7448;52.698;5.186;2022-12-08T12:37:04;6.90;;;1.70;;
14714;SDS011;7448;52.698;5.186;2022-12-08T12:39:45;2.67;;;1.33;;
14714;SDS011;7448;52.698;5.186;2022-12-08T12:45:39;6.57;;;1.95;;
14714;SDS011;7448;52.698;5.186;2022-12-08T12:47:47;6.55;;;1.70;;
14714;SDS011;7448;52.698;5.186;2022-12-08T12:50:36;4.78;;;1.50;;
14714;SDS011;7448;52.698;5.186;2022-12-08T13:06:05;7.40;;;2.00;;
14714;SDS011;7448;52.698;5.186;2022-12-08T13:08:32;4.20;;;1.90;;
14714;SDS011;7448;52.698;5.186;2022-12-08T13:11:03;6.35;;;2.05;;
14714;SDS011;7448;52.698;5.186;2022-12-08T13:13:30;5.90;;;1.80;;
14714;SDS011;7448;52.698;5.186;2022-12-08T13:16:03;6.40;;;2.42;;
14714;SDS011;7448;52.698;5.186;2022-12-08T13:21:04;2.83;;;1.73;;
14714;SDS011;7448;52.698;5.186;2022-12-08T13:33:58;6.40;;;2.20;;
14714;SDS011;7448;52.698;5.186;2022-12-08T13:36:25;3.28;;;1.92;;
14714;SDS011;7448;52.698;5.186;2022-12-08T13:38:53;5.57;;;2.15;;
14714;SDS011;7448;52.698;5.186;2022-12-08T13:41:21;3.75;;;1.65;;
14714;SDS011;7448;52.698;5.186;2022-12-08T13:43:51;8.60;;;1.80;;
14714;SDS011;7448;52.698;5.186;2022-12-08T13:46:27;4.22;;;1.67;;
14714;SDS011;7448;52.698;5.186;2022-12-08T13:48:54;11.35;;;2.33;;
14714;SDS011;7448;52.698;5.186;2022-12-08T13:51:22;5.95;;;1.92;;
14714;SDS011;7448;52.698;5.186;2022-12-08T13:53:57;12.57;;;2.08;;
14714;SDS011;7448;52.698;5.186;2022-12-08T13:56:24;6.13;;;2.15;;
14714;SDS011;7448;52.698;5.186;2022-12-08T13:58:51;5.43;;;2.10;;
14714;SDS011;7448;52.698;5.186;2022-12-08T14:01:31;3.92;;;2.20;;
14714;SDS011;7448;52.698;5.186;2022-12-08T14:03:58;7.05;;;2.03;;
14714;SDS011;7448;52.698;5.186;2022-12-08T14:06:29;6.82;;;2.53;;
14714;SDS011;7448;52.698;5.186;2022-12-08T14:08:57;8.27;;;2.65;;
14714;SDS011;7448;52.698;5.186;2022-12-08T14:11:34;9.63;;;3.58;;
14714;SDS011;7448;52.698;5.186;2022-12-08T14:14:47;4.75;;;2.17;;
14714;SDS011;7448;52.698;5.186;2022-12-08T14:16:49;4.68;;;2.22;;
14714;SDS011;7448;52.698;5.186;2022-12-08T14:19:22;3.58;;;2.17;;
14714;SDS011;7448;52.698;5.186;2022-12-08T14:21:59;8.35;;;3.03;;
14714;SDS011;7448;52.698;5.186;2022-12-08T14:24:27;6.13;;;2.92;;
14714;SDS011;7448;52.698;5.186;2022-12-08T14:27:02;8.60;;;3.83;;
14714;SDS011;7448;52.698;5.186;2022-12-08T14:32:25;7.25;;;3.70;;
14714;SDS011;7448;52.698;5.186;2022-12-08T14:37:19;7.80;;;4.05;;
14714;SDS011;7448;52.698;5.186;2022-12-08T14:39:45;9.20;;;3.95;;
14714;SDS011;7448;52.698;5.186;2022-12-08T14:42:30;7.45;;;4.60;;
14714;SDS011;7448;52.698;5.186;2022-12-08T14:45:03;7.68;;;4.13;;
14714;SDS011;7448;52.698;5.186;2022-12-08T14:47:31;12.00;;;5.22;;
14714;SDS011;7448;52.698;5.186;2022-12-08T14:49:59;8.32;;;5.03;;
14714;SDS011;7448;52.698;5.186;2022-12-08T14:52:25;10.25;;;4.57;;
14714;SDS011;7448;52.698;5.186;2022-12-08T14:54:52;10.57;;;4.55;;
14714;SDS011;7448;52.698;5.186;2022-12-08T14:57:19;6.25;;;4.40;;
14714;SDS011;7448;52.698;5.186;2022-12-08T14:59:45;8.07;;;4.32;;
14714;SDS011;7448;52.698;5.186;2022-12-08T15:04:56;7.15;;;3.67;;
14714;SDS011;7448;52.698;5.186;2022-12-08T15:07:27;8.43;;;3.20;;
14714;SDS011;7448;52.698;5.186;2022-12-08T15:10:08;7.00;;;3.13;;
14714;SDS011;7448;52.698;5.186;2022-12-08T15:12:35;5.18;;;2.67;;
14714;SDS011;7448;52.698;5.186;2022-12-08T15:20:01;7.03;;;3.35;;
14714;SDS011;7448;52.698;5.186;2022-12-08T15:22:28;5.88;;;2.92;;
14714;SDS011;7448;52.698;5.186;2022-12-08T15:24:55;8.75;;;4.50;;
14714;SDS011;7448;52.698;5.186;2022-12-08T15:27:22;10.07;;;4.10;;
14714;SDS011;7448;52.698;5.186;2022-12-08T15:29:49;9.68;;;4.53;;
14714;SDS011;7448;52.698;5.186;2022-12-08T15:32:18;13.40;;;5.03;;
14714;SDS011;7448;52.698;5.186;2022-12-08T15:34:45;12.52;;;4.93;;
14714;SDS011;7448;52.698;5.186;2022-12-08T15:37:18;11.10;;;5.38;;
14714;SDS011;7448;52.698;5.186;2022-12-08T15:39:45;12.77;;;5.40;;
14714;SDS011;7448;52.698;5.186;2022-12-08T15:42:12;11.38;;;5.57;;
14714;SDS011;7448;52.698;5.186;2022-12-08T15:44:40;12.50;;;5.78;;
14714;SDS011;7448;52.698;5.186;2022-12-08T15:47:16;11.23;;;5.60;;
14714;SDS011;7448;52.698;5.186;2022-12-08T15:49:43;9.88;;;6.00;;
14714;SDS011;7448;52.698;5.186;2022-12-08T15:52:14;12.75;;;5.75;;
14714;SDS011;7448;52.698;5.186;2022-12-08T15:54:42;11.30;;;6.20;;
14714;SDS011;7448;52.698;5.186;2022-12-08T15:57:29;14.55;;;6.57;;
14714;SDS011;7448;52.698;5.186;2022-12-08T15:59:55;14.15;;;6.63;;
14714;SDS011;7448;52.698;5.186;2022-12-08T16:02:21;11.90;;;5.68;;
14714;SDS011;7448;52.698;5.186;2022-12-08T16:04:48;11.05;;;5.63;;
14714;SDS011;7448;52.698;5.186;2022-12-08T16:07:19;9.27;;;5.10;;
14714;SDS011;7448;52.698;5.186;2022-12-08T16:09:46;9.32;;;5.25;;
14714;SDS011;7448;52.698;5.186;2022-12-08T16:12:14;10.10;;;5.28;;
14714;SDS011;7448;52.698;5.186;2022-12-08T16:15:00;10.75;;;5.38;;
14714;SDS011;7448;52.698;5.186;2022-12-08T16:17:26;12.55;;;5.90;;
14714;SDS011;7448;52.698;5.186;2022-12-08T16:19:53;10.20;;;6.22;;
14714;SDS011;7448;52.698;5.186;2022-12-08T16:22:25;12.73;;;5.65;;
14714;SDS011;7448;52.698;5.186;2022-12-08T16:24:52;14.30;;;7.35;;
14714;SDS011;7448;52.698;5.186;2022-12-08T16:27:23;14.40;;;7.45;;
14714;SDS011;7448;52.698;5.186;2022-12-08T16:29:51;14.60;;;7.78;;
14714;SDS011;7448;52.698;5.186;2022-12-08T16:32:17;11.18;;;6.40;;
14714;SDS011;7448;52.698;5.186;2022-12-08T16:34:44;11.18;;;6.47;;
14714;SDS011;7448;52.698;5.186;2022-12-08T16:37:13;12.57;;;5.72;;
14714;SDS011;7448;52.698;5.186;2022-12-08T16:39:39;11.85;;;6.85;;
14714;SDS011;7448;52.698;5.186;2022-12-08T16:42:10;12.32;;;6.30;;
14714;SDS011;7448;52.698;5.186;2022-12-08T16:44:56;11.10;;;5.30;;
14714;SDS011;7448;52.698;5.186;2022-12-08T16:47:22;13.38;;;6.97;;
14714;SDS011;7448;52.698;5.186;2022-12-08T16:49:49;19.27;;;7.68;;